^^
Saratoga-Weather Station Historical Data
Daily Summary for March 3, 2021 Units:  Metric    English   Both
Daily Weekly Monthly Yearly Custom
  High: Low: Average:
Temperature: 15.1 °C 1.4 °C 8.6 °C
Dew Point: 3.8 °C -0.2 °C 1.6 °C
Humidity: 90% 39% 64%
Wind Speed: 16.3km/h 0km/h 2.4km/h
Wind Gust: 20.9km/h - -
Wind- - WSW
Pressure: 1022.7 hPa 1011.5 hPa -
Precipitation: 0.0 mm    
Historical Graphs
 
 
Tabular Data for March 3, 2021
Time Temperature Dew Point Pressure Wind Wind Speed Wind Gust Humidity Rainfall Rate (Hourly) solar
00:01 5.3 °C 1.4 °C 1021.0 hPa NW 1.4 km/h 1.6 km/h 76% 0.0 mm 0 W/m2
00:06 5.2 °C 1.3 °C 1021.0 hPa Calm     76% 0.0 mm 0 W/m2
00:11 5 °C 1.1 °C 1021.0 hPa Calm     76% 0.0 mm 0 W/m2
00:16 4.9 °C 1.2 °C 1021.0 hPa Calm     77% 0.0 mm 0 W/m2
00:21 4.8 °C 1.1 °C 1021.0 hPa Calm     77% 0.0 mm 0 W/m2
00:26 4.7 °C 1.2 °C 1021.0 hPa NW 1.4 km/h 1.6 km/h 78% 0.0 mm 0 W/m2
00:31 4.6 °C 1.1 °C 1021.0 hPa NW 1.4 km/h 3.2 km/h 78% 0.0 mm 0 W/m2
00:36 4.5 °C 1 °C 1021.0 hPa NW 1.4 km/h 1.6 km/h 78% 0.0 mm 0 W/m2
00:41 4.5 °C 1 °C 1021.0 hPa WNW 1.4 km/h 4.8 km/h 78% 0.0 mm 0 W/m2
00:46 4.7 °C 1.2 °C 1021.0 hPa WNW 1.4 km/h 1.6 km/h 78% 0.0 mm 0 W/m2
00:51 4.7 °C 1.2 °C 1021.3 hPa WNW 3.2 km/h 4.8 km/h 78% 0.0 mm 0 W/m2
00:56 4.7 °C 1.2 °C 1021.3 hPa Calm   1.6 km/h 78% 0.0 mm 0 W/m2
01:01 4.7 °C 1 °C 1021.3 hPa WNW 1.4 km/h 1.6 km/h 77% 0.0 mm 0 W/m2
01:06 4.7 °C 1 °C 1021.3 hPa WNW 3.2 km/h 3.2 km/h 77% 0.0 mm 0 W/m2
01:11 4.6 °C 0.9 °C 1021.3 hPa WNW 1.4 km/h 1.6 km/h 77% 0.0 mm 0 W/m2
01:16 4.6 °C 1.1 °C 1021.3 hPa WNW 1.4 km/h 1.6 km/h 78% 0.0 mm 0 W/m2
01:21 4.5 °C 1 °C 1021.3 hPa Calm   1.6 km/h 78% 0.0 mm 0 W/m2
01:26 4.4 °C 0.9 °C 1021.3 hPa Calm     78% 0.0 mm 0 W/m2
01:31 4.4 °C 0.9 °C 1021.3 hPa Calm     78% 0.0 mm 0 W/m2
01:36 4.2 °C 0.9 °C 1021.3 hPa Calm     79% 0.0 mm 0 W/m2
01:41 4.1 °C 0.8 °C 1021.3 hPa Calm     79% 0.0 mm 0 W/m2
01:46 4 °C 0.9 °C 1021.3 hPa WNW 1.4 km/h 3.2 km/h 80% 0.0 mm 0 W/m2
01:52 3.8 °C 0.7 °C 1021.3 hPa WNW 1.4 km/h 1.6 km/h 80% 0.0 mm 0 W/m2
01:57 3.7 °C 0.7 °C 1021.3 hPa Calm     81% 0.0 mm 0 W/m2
02:02 3.6 °C 0.6 °C 1021.3 hPa WNW 1.4 km/h 1.6 km/h 81% 0.0 mm 0 W/m2
02:07 3.6 °C 0.8 °C 1021.3 hPa Calm   3.2 km/h 82% 0.0 mm 0 W/m2
02:12 3.5 °C 0.7 °C 1021.3 hPa Calm   1.6 km/h 82% 0.0 mm 0 W/m2
02:17 3.4 °C 0.6 °C 1021.3 hPa Calm   3.2 km/h 82% 0.0 mm 0 W/m2
02:22 3.4 °C 0.6 °C 1021.3 hPa Calm   1.6 km/h 82% 0.0 mm 0 W/m2
02:27 3.3 °C 0.5 °C 1021.3 hPa Calm     82% 0.0 mm 0 W/m2
02:32 3.2 °C 0.4 °C 1021.3 hPa Calm     82% 0.0 mm 0 W/m2
02:37 3.2 °C 0.6 °C 1021.3 hPa Calm     83% 0.0 mm 0 W/m2
02:42 3.1 °C 0.5 °C 1021.3 hPa Calm     83% 0.0 mm 0 W/m2
02:47 3 °C 0.4 °C 1021.3 hPa Calm     83% 0.0 mm 0 W/m2
02:52 2.9 °C 0.3 °C 1021.3 hPa Calm     83% 0.0 mm 0 W/m2
02:57 2.8 °C 0.4 °C 1021.3 hPa Calm     84% 0.0 mm 0 W/m2
03:02 2.7 °C 0.3 °C 1021.3 hPa Calm     84% 0.0 mm 0 W/m2
03:07 2.7 °C 0.4 °C 1021.3 hPa Calm     85% 0.0 mm 0 W/m2
03:12 2.6 °C 0.3 °C 1021.3 hPa Calm     85% 0.0 mm 0 W/m2
03:17 2.5 °C 0.2 °C 1021.3 hPa Calm   1.6 km/h 85% 0.0 mm 0 W/m2
03:22 2.4 °C 0.1 °C 1021.3 hPa Calm     85% 0.0 mm 0 W/m2
03:27 2.3 °C 0 °C 1021.3 hPa Calm   1.6 km/h 85% 0.0 mm 0 W/m2
03:32 2.2 °C -0.1 °C 1021.3 hPa Calm     85% 0.0 mm 0 W/m2
03:37 2.2 °C 0.1 °C 1021.3 hPa Calm     86% 0.0 mm 0 W/m2
03:42 2.1 °C 0 °C 1021.3 hPa Calm     86% 0.0 mm 0 W/m2
03:47 2.1 °C 0.2 °C 1021.3 hPa Calm     87% 0.0 mm 0 W/m2
03:52 2.1 °C 0.2 °C 1021.7 hPa Calm     87% 0.0 mm 0 W/m2
03:57 2 °C 0.1 °C 1021.7 hPa Calm     87% 0.0 mm 0 W/m2
04:02 1.9 °C 0 °C 1021.3 hPa Calm     87% 0.0 mm 0 W/m2
04:07 1.9 °C 0 °C 1021.7 hPa Calm     87% 0.0 mm 0 W/m2
04:12 1.8 °C 0 °C 1021.3 hPa Calm   1.6 km/h 88% 0.0 mm 0 W/m2
04:17 1.8 °C 0 °C 1021.7 hPa Calm     88% 0.0 mm 0 W/m2
04:22 1.8 °C 0 °C 1021.3 hPa Calm     88% 0.0 mm 0 W/m2
04:27 1.7 °C -0.1 °C 1021.7 hPa Calm     88% 0.0 mm 0 W/m2
04:32 1.7 °C -0.1 °C 1021.7 hPa Calm     88% 0.0 mm 0 W/m2
04:37 1.7 °C -0.1 °C 1021.7 hPa Calm     88% 0.0 mm 0 W/m2
04:42 1.7 °C 0.1 °C 1021.7 hPa Calm     89% 0.0 mm 0 W/m2
04:47 1.7 °C 0.1 °C 1021.7 hPa Calm     89% 0.0 mm 0 W/m2
04:52 1.7 °C 0.1 °C 1021.7 hPa Calm     89% 0.0 mm 0 W/m2
04:57 1.7 °C 0.1 °C 1021.3 hPa Calm   1.6 km/h 89% 0.0 mm 0 W/m2
05:02 1.7 °C -0.1 °C 1021.7 hPa Calm     88% 0.0 mm 0 W/m2
05:07 1.7 °C 0.1 °C 1021.7 hPa Calm     89% 0.0 mm 0 W/m2
05:12 1.7 °C 0.1 °C 1021.7 hPa Calm     89% 0.0 mm 0 W/m2
05:17 1.8 °C 0.2 °C 1021.7 hPa Calm     89% 0.0 mm 0 W/m2
05:22 1.8 °C 0.2 °C 1021.7 hPa Calm     89% 0.0 mm 0 W/m2
05:27 1.9 °C 0.3 °C 1021.7 hPa Calm     89% 0.0 mm 0 W/m2
05:32 1.9 °C 0.3 °C 1021.7 hPa Calm     89% 0.0 mm 0 W/m2
05:37 1.8 °C 0.2 °C 1021.7 hPa Calm     89% 0.0 mm 0 W/m2
05:42 1.8 °C 0 °C 1021.7 hPa Calm     88% 0.0 mm 0 W/m2
05:47 1.8 °C 0.2 °C 1021.7 hPa Calm     89% 0.0 mm 0 W/m2
05:52 1.7 °C 0.1 °C 1021.7 hPa Calm   1.6 km/h 89% 0.0 mm 0 W/m2
05:57 1.7 °C 0.1 °C 1021.7 hPa WNW 1.4 km/h 3.2 km/h 89% 0.0 mm 0 W/m2
06:02 1.7 °C 0.1 °C 1022.0 hPa Calm   1.6 km/h 89% 0.0 mm 0 W/m2
06:07 1.7 °C 0.1 °C 1022.0 hPa Calm     89% 0.0 mm 0 W/m2
06:12 1.7 °C 0.1 °C 1022.0 hPa Calm   1.6 km/h 89% 0.0 mm 5 W/m2
06:17 1.6 °C 0 °C 1022.0 hPa Calm     89% 0.0 mm 7 W/m2
06:22 1.6 °C 0 °C 1022.0 hPa Calm   1.6 km/h 89% 0.0 mm 9 W/m2
06:27 1.5 °C -0.1 °C 1022.0 hPa Calm     89% 0.0 mm 12 W/m2
06:32 1.4 °C -0.2 °C 1022.0 hPa Calm     89% 0.0 mm 14 W/m2
06:37 1.4 °C -0.2 °C 1022.0 hPa Calm     89% 0.0 mm 18 W/m2
06:42 1.4 °C -0.2 °C 1022.0 hPa WNW 1.4 km/h 1.6 km/h 89% 0.0 mm 21 W/m2
06:47 1.5 °C 0 °C 1022.0 hPa Calm   1.6 km/h 90% 0.0 mm 28 W/m2
06:52 1.6 °C 0.1 °C 1022.0 hPa Calm     90% 0.0 mm 30 W/m2
06:57 1.6 °C 0.1 °C 1022.0 hPa Calm     90% 0.0 mm 35 W/m2
07:02 1.7 °C 0.2 °C 1022.4 hPa Calm     90% 0.0 mm 37 W/m2
07:07 1.7 °C 0.2 °C 1022.4 hPa Calm     90% 0.0 mm 39 W/m2
07:13 1.8 °C 0.3 °C 1022.4 hPa Calm     90% 0.0 mm 40 W/m2
07:18 2 °C 0.5 °C 1022.4 hPa Calm     90% 0.0 mm 33 W/m2
07:23 2.1 °C 0.6 °C 1022.4 hPa Calm     90% 0.0 mm 32 W/m2
07:28 2.2 °C 0.7 °C 1022.4 hPa Calm     90% 0.0 mm 32 W/m2
07:33 2.3 °C 0.7 °C 1022.4 hPa Calm     89% 0.0 mm 33 W/m2
07:38 2.3 °C 0.7 °C 1022.4 hPa Calm     89% 0.0 mm 40 W/m2
07:43 2.4 °C 0.8 °C 1022.4 hPa Calm     89% 0.0 mm 44 W/m2
07:48 2.6 °C 1 °C 1022.4 hPa Calm     89% 0.0 mm 46 W/m2
07:53 2.7 °C 1.1 °C 1022.4 hPa Calm     89% 0.0 mm 47 W/m2
07:58 2.9 °C 1.3 °C 1022.4 hPa Calm     89% 0.0 mm 51 W/m2
08:03 3.2 °C 1.4 °C 1022.7 hPa Calm     88% 0.0 mm 53 W/m2
08:08 3.6 °C 1.8 °C 1022.4 hPa Calm   3.2 km/h 88% 0.0 mm 53 W/m2
08:13 4.2 °C 2.2 °C 1022.7 hPa ENE 1.4 km/h 4.8 km/h 87% 0.0 mm 54 W/m2
08:18 4.8 °C 2.3 °C 1022.7 hPa ENE 1.4 km/h 1.6 km/h 84% 0.0 mm 56 W/m2
08:23 5.1 °C 2.3 °C 1022.7 hPa Calm   4.8 km/h 82% 0.0 mm 58 W/m2
08:28 5.6 °C 2.6 °C 1022.4 hPa Calm   3.2 km/h 81% 0.0 mm 62 W/m2
08:33 6 °C 2.6 °C 1022.7 hPa ENE 1.4 km/h 3.2 km/h 79% 0.0 mm 62 W/m2
08:38 6.2 °C 2.6 °C 1022.7 hPa ENE 3.2 km/h 4.8 km/h 78% 0.0 mm 76 W/m2
08:43 6.3 °C 2.6 °C 1022.7 hPa ENE 1.4 km/h 6.4 km/h 77% 0.0 mm 181 W/m2
08:48 6.4 °C 2.7 °C 1022.4 hPa ENE 4.7 km/h 4.8 km/h 77% 0.0 mm 276 W/m2
08:53 6.6 °C 2.7 °C 1022.4 hPa ENE 4.7 km/h 6.4 km/h 76% 0.0 mm 329 W/m2
08:58 6.8 °C 2.7 °C 1022.4 hPa ESE 3.2 km/h 6.4 km/h 75% 0.0 mm 350 W/m2
09:03 7.1 °C 3 °C 1022.7 hPa ESE 3.2 km/h 4.8 km/h 75% 0.0 mm 355 W/m2
09:08 7.3 °C 3.2 °C 1022.7 hPa SE 3.2 km/h 3.2 km/h 75% 0.0 mm 359 W/m2
09:13 7.6 °C 3.3 °C 1022.7 hPa NE 3.2 km/h 6.4 km/h 74% 0.0 mm 357 W/m2
09:18 7.7 °C 3.4 °C 1022.7 hPa East 3.2 km/h 6.4 km/h 74% 0.0 mm 408 W/m2
09:23 8 °C 3.6 °C 1022.7 hPa ESE 3.2 km/h 3.2 km/h 74% 0.0 mm 410 W/m2
09:28 8.4 °C 3.6 °C 1022.7 hPa East 1.4 km/h 4.8 km/h 72% 0.0 mm 443 W/m2
09:33 8.6 °C 3.4 °C 1022.4 hPa NE 1.4 km/h 6.4 km/h 70% 0.0 mm 343 W/m2
09:38 8.7 °C 3.5 °C 1022.4 hPa North 1.4 km/h 6.4 km/h 70% 0.0 mm 83 W/m2
09:43 8.9 °C 3.5 °C 1022.4 hPa North 3.2 km/h 6.4 km/h 69% 0.0 mm 160 W/m2
09:48 9.3 °C 3.7 °C 1022.4 hPa NE 3.2 km/h 3.2 km/h 68% 0.0 mm 490 W/m2
09:53 9.6 °C 3.8 °C 1022.4 hPa SE 1.4 km/h 3.2 km/h 67% 0.0 mm 496 W/m2
09:58 9.8 °C 3.5 °C 1022.4 hPa East 4.7 km/h 6.4 km/h 65% 0.0 mm 517 W/m2
10:03 9.9 °C 3.4 °C 1022.4 hPa West 3.2 km/h 4.8 km/h 64% 0.0 mm 218 W/m2
10:08 10 °C 3.3 °C 1022.4 hPa NNW 3.2 km/h 6.4 km/h 63% 0.0 mm 281 W/m2
10:13 10.3 °C 3.3 °C 1022.4 hPa Calm   9.7 km/h 62% 0.0 mm 592 W/m2
10:18 10.7 °C 3.5 °C 1022.4 hPa NW 7.9 km/h 12.9 km/h 61% 0.0 mm 626 W/m2
10:23 10.8 °C 3.1 °C 1022.4 hPa WNW 4.7 km/h 12.9 km/h 59% 0.0 mm 629 W/m2
10:28 10.9 °C 3 °C 1022.4 hPa West 6.4 km/h 14.5 km/h 58% 0.0 mm 603 W/m2
10:33 11.1 °C 2.7 °C 1022.4 hPa Calm   8 km/h 56% 0.0 mm 631 W/m2
10:38 11.3 °C 2.6 °C 1022.4 hPa West 6.4 km/h 16.1 km/h 55% 0.0 mm 649 W/m2
10:43 11.2 °C 3 °C 1022.4 hPa WNW 1.4 km/h 9.7 km/h 57% 0.0 mm 656 W/m2
10:48 11.3 °C 2.8 °C 1022.4 hPa NW 6.4 km/h 16.1 km/h 56% 0.0 mm 664 W/m2
10:53 11.2 °C 2.7 °C 1022.4 hPa WNW 3.2 km/h 17.7 km/h 56% 0.0 mm 116 W/m2
10:58 11.2 °C 3 °C 1022.4 hPa NW 3.2 km/h 4.8 km/h 57% 0.0 mm 726 W/m2
11:03 11.4 °C 2.9 °C 1022.4 hPa WNW 4.7 km/h 12.9 km/h 56% 0.0 mm 302 W/m2
11:08 11.7 °C 3.5 °C 1022.4 hPa WSW 1.4 km/h 4.8 km/h 57% 0.0 mm 796 W/m2
11:13 12 °C 3.2 °C 1022.0 hPa West 1.4 km/h 6.4 km/h 55% 0.0 mm 260 W/m2
11:18 12 °C 3.5 °C 1022.0 hPa NW 4.7 km/h 11.3 km/h 56% 0.0 mm 881 W/m2
11:23 12.1 °C 3.3 °C 1022.0 hPa NNW 4.7 km/h 9.7 km/h 55% 0.0 mm 911 W/m2
11:28 12.1 °C 3.1 °C 1022.0 hPa WSW 11.1 km/h 14.5 km/h 54% 0.0 mm 179 W/m2
11:33 11.8 °C 2.8 °C 1022.0 hPa WNW 11.1 km/h 12.9 km/h 54% 0.0 mm 171 W/m2
11:38 11.4 °C 2.2 °C 1022.0 hPa Calm   11.3 km/h 53% 0.0 mm 190 W/m2
11:43 11.3 °C 2.1 °C 1021.7 hPa WNW 6.4 km/h 12.9 km/h 53% 0.0 mm 947 W/m2
11:48 11.8 °C 2 °C 1021.7 hPa WNW 1.4 km/h 12.9 km/h 51% 0.0 mm 969 W/m2
11:53 12.1 °C 1.7 °C 1021.7 hPa WNW 4.7 km/h 6.4 km/h 49% 0.0 mm 265 W/m2
11:58 12.3 °C 1.6 °C 1021.7 hPa NE 4.7 km/h 16.1 km/h 48% 0.0 mm 933 W/m2
12:03 12.6 °C 2.7 °C 1021.3 hPa WNW 6.4 km/h 16.1 km/h 51% 0.0 mm 984 W/m2
12:08 12.7 °C 2.5 °C 1021.3 hPa West 6.4 km/h 12.9 km/h 50% 0.0 mm 299 W/m2
12:13 12.5 °C 2.6 °C 1021.3 hPa NW 3.2 km/h 17.7 km/h 51% 0.0 mm 870 W/m2
12:18 12.4 °C 2.5 °C 1021.3 hPa ESE 6.4 km/h 6.4 km/h 51% 0.0 mm 782 W/m2
12:23 12.7 °C 2.5 °C 1021.3 hPa West 11.1 km/h 19.3 km/h 50% 0.0 mm 875 W/m2
12:28 12.5 °C 2.1 °C 1021.3 hPa Calm   11.3 km/h 49% 0.0 mm 492 W/m2
12:33 12.6 °C 3 °C 1021.3 hPa East 7.9 km/h 8 km/h 52% 0.0 mm 990 W/m2
12:38 13.1 °C 2.3 °C 1021.0 hPa WNW 7.9 km/h 9.7 km/h 48% 0.0 mm 997 W/m2
12:43 13.3 °C 2.2 °C 1021.0 hPa North 3.2 km/h 14.5 km/h 47% 0.0 mm 526 W/m2
12:48 13.5 °C 2.4 °C 1021.0 hPa WNW 4.7 km/h 6.4 km/h 47% 0.0 mm 1039 W/m2
12:53 13.7 °C 2.6 °C 1021.0 hPa West 4.7 km/h 8 km/h 47% 0.0 mm 1107 W/m2
12:58 13.7 °C 2.6 °C 1020.7 hPa WSW 6.4 km/h 12.9 km/h 47% 0.0 mm 1071 W/m2
13:03 13.4 °C 2.3 °C 1021.0 hPa South 7.9 km/h 17.7 km/h 47% 0.0 mm 1123 W/m2
13:08 13.3 °C 2.5 °C 1020.7 hPa SW 11.1 km/h 11.3 km/h 48% 0.0 mm 318 W/m2
13:13 13.1 °C 2 °C 1020.7 hPa NW 1.4 km/h 12.9 km/h 47% 0.0 mm 292 W/m2
13:18 13.1 °C 1.4 °C 1020.3 hPa North 4.7 km/h 14.5 km/h 45% 0.0 mm 313 W/m2
13:23 13.2 °C 2.1 °C 1020.3 hPa NNE 7.9 km/h 12.9 km/h 47% 0.0 mm 1053 W/m2
13:28 13.5 °C 2.4 °C 1020.3 hPa NW 7.9 km/h 19.3 km/h 47% 0.0 mm 933 W/m2
13:33 13.8 °C 2.4 °C 1020.3 hPa NE 1.4 km/h 14.5 km/h 46% 0.0 mm 1028 W/m2
13:38 13.7 °C 2.6 °C 1020.3 hPa NW 6.4 km/h 19.3 km/h 47% 0.0 mm 269 W/m2
13:43 13.6 °C 1.9 °C 1020.3 hPa ENE 3.2 km/h 11.3 km/h 45% 0.0 mm 283 W/m2
13:48 13.4 °C 2 °C 1020.3 hPa East 3.2 km/h 19.3 km/h 46% 0.0 mm 364 W/m2
13:53 13.3 °C 2.2 °C 1020.3 hPa NW 1.4 km/h 12.9 km/h 47% 0.0 mm 279 W/m2
13:58 13.2 °C 2.4 °C 1020.0 hPa NW 1.4 km/h 8 km/h 48% 0.0 mm 264 W/m2
14:03 13.2 °C 2.4 °C 1020.0 hPa NW 1.4 km/h 6.4 km/h 48% 0.0 mm 232 W/m2
14:08 13.1 °C 2 °C 1020.0 hPa West 1.4 km/h 17.7 km/h 47% 0.0 mm 220 W/m2
14:13 12.9 °C 2.2 °C 1019.6 hPa WSW 4.7 km/h 4.8 km/h 48% 0.0 mm 216 W/m2
14:18 12.8 °C 2.3 °C 1019.6 hPa Calm   17.7 km/h 49% 0.0 mm 193 W/m2
14:23 12.9 °C 2.2 °C 1019.6 hPa West 9.7 km/h 12.9 km/h 48% 0.0 mm 202 W/m2
14:28 12.9 °C 1.9 °C 1019.6 hPa West 3.2 km/h 11.3 km/h 47% 0.0 mm 199 W/m2
14:33 12.9 °C 1.9 °C 1019.6 hPa WNW 7.9 km/h 14.5 km/h 47% 0.0 mm 230 W/m2
14:38 13 °C 1.9 °C 1019.6 hPa WNW 4.7 km/h 9.7 km/h 47% 0.0 mm 185 W/m2
14:43 12.9 °C 1.9 °C 1019.6 hPa West 6.4 km/h 8 km/h 47% 0.0 mm 246 W/m2
14:48 13.3 °C 3.1 °C 1019.3 hPa WNW 11.1 km/h 11.3 km/h 50% 0.0 mm 1032 W/m2
14:53 13.8 °C 2.4 °C 1019.3 hPa WSW 6.4 km/h 8 km/h 46% 0.0 mm 197 W/m2
14:58 13.7 °C 1.7 °C 1019.3 hPa West 3.2 km/h 12.9 km/h 44% 0.0 mm 255 W/m2
15:03 13.5 °C 2.1 °C 1019.0 hPa WNW 4.7 km/h 12.9 km/h 46% 0.0 mm 244 W/m2
15:08 13.5 °C 2.1 °C 1019.0 hPa SW 6.4 km/h 11.3 km/h 46% 0.0 mm 272 W/m2
15:13 13.6 °C 2.2 °C 1019.0 hPa WNW 7.9 km/h 16.1 km/h 46% 0.0 mm 272 W/m2
15:18 13.6 °C 2.2 °C 1019.0 hPa West 11.1 km/h 16.1 km/h 46% 0.0 mm 251 W/m2
15:23 13.5 °C 1.5 °C 1019.0 hPa West 9.7 km/h 16.1 km/h 44% 0.0 mm 218 W/m2
15:28 13.5 °C 1.8 °C 1019.0 hPa WNW 4.7 km/h 9.7 km/h 45% 0.0 mm 200 W/m2
15:33 13.6 °C 2.2 °C 1019.0 hPa WSW 6.4 km/h 16.1 km/h 46% 0.0 mm 188 W/m2
15:38 13.4 °C 2 °C 1018.6 hPa WNW 6.4 km/h 11.3 km/h 46% 0.0 mm 221 W/m2
15:43 13.5 °C 2.4 °C 1018.6 hPa West 3.2 km/h 14.5 km/h 47% 0.0 mm 258 W/m2
15:48 13.8 °C 2.4 °C 1018.6 hPa WSW 3.2 km/h 12.9 km/h 46% 0.0 mm 345 W/m2
15:53 14.1 °C 2.6 °C 1018.3 hPa NW 4.7 km/h 16.1 km/h 46% 0.0 mm 366 W/m2
15:58 14.1 °C 2.3 °C 1018.3 hPa NW 4.7 km/h 12.9 km/h 45% 0.0 mm 360 W/m2
16:03 14.2 °C 2.1 °C 1018.3 hPa WNW 16.3 km/h 17.7 km/h 44% 0.0 mm 872 W/m2
16:08 14.7 °C 1.9 °C 1018.3 hPa WNW 4.7 km/h 6.4 km/h 42% 0.0 mm 759 W/m2
16:13 14.9 °C 1.8 °C 1018.0 hPa NW 4.7 km/h 17.7 km/h 41% 0.0 mm 265 W/m2
16:18 14.9 °C 1.8 °C 1018.0 hPa WSW 6.4 km/h 19.3 km/h 41% 0.0 mm 786 W/m2
16:23 14.8 °C 1.7 °C 1018.0 hPa NNW 7.9 km/h 8 km/h 41% 0.0 mm 265 W/m2
16:28 14.6 °C 1.5 °C 1018.0 hPa NW 4.7 km/h 19.3 km/h 41% 0.0 mm 323 W/m2
16:33 14.8 °C 2 °C 1018.0 hPa SW 4.7 km/h 14.5 km/h 42% 0.0 mm 830 W/m2
16:38 14.9 °C 1.4 °C 1018.0 hPa WNW 6.4 km/h 12.9 km/h 40% 0.0 mm 204 W/m2
16:43 14.8 °C 1.3 °C 1017.6 hPa WSW 3.2 km/h 14.5 km/h 40% 0.0 mm 362 W/m2
16:48 14.9 °C 1.4 °C 1017.6 hPa NW 4.7 km/h 11.3 km/h 40% 0.0 mm 200 W/m2
16:53 14.8 °C 1.3 °C 1017.6 hPa NW 3.2 km/h 12.9 km/h 40% 0.0 mm 185 W/m2
16:58 14.7 °C 1.2 °C 1017.6 hPa WNW 7.9 km/h 9.7 km/h 40% 0.0 mm 179 W/m2
17:03 14.5 °C 1.1 °C 1017.3 hPa West 11.1 km/h 17.7 km/h 40% 0.0 mm 220 W/m2
17:08 14.5 °C 1.4 °C 1017.3 hPa WNW 6.4 km/h 12.9 km/h 41% 0.0 mm 327 W/m2
17:13 14.7 °C 1.2 °C 1017.3 hPa WSW 7.9 km/h 17.7 km/h 40% 0.0 mm 429 W/m2
17:18 15 °C 1.9 °C 1017.3 hPa WNW 11.1 km/h 11.3 km/h 41% 0.0 mm 281 W/m2
17:23 15.1 °C 1.2 °C 1017.3 hPa SW 4.7 km/h 12.9 km/h 39% 0.0 mm 297 W/m2
17:28 15 °C 1.2 °C 1016.9 hPa West 9.7 km/h 20.9 km/h 39% 0.0 mm 350 W/m2
17:33 14.9 °C 1.8 °C 1016.9 hPa WNW 1.4 km/h 6.4 km/h 41% 0.0 mm 267 W/m2
17:38 14.9 °C 1.4 °C 1016.9 hPa NW 3.2 km/h 14.5 km/h 40% 0.0 mm 211 W/m2
17:43 14.7 °C 1.2 °C 1016.9 hPa South 3.2 km/h 11.3 km/h 40% 0.0 mm 200 W/m2
17:48 14.6 °C 1.5 °C 1016.9 hPa WNW 4.7 km/h 12.9 km/h 41% 0.0 mm 605 W/m2
17:53 14.9 °C 1.4 °C 1016.9 hPa WNW 1.4 km/h 11.3 km/h 40% 0.0 mm 462 W/m2
17:59 15.1 °C 1.9 °C 1016.9 hPa NNW 6.4 km/h 8 km/h 41% 0.0 mm 179 W/m2
18:04 14.9 °C 1.8 °C 1016.6 hPa ENE 3.2 km/h 6.4 km/h 41% 0.0 mm 141 W/m2
18:09 14.7 °C 1.6 °C 1016.6 hPa NNW 4.7 km/h 12.9 km/h 41% 0.0 mm 130 W/m2
18:14 14.4 °C 1.6 °C 1016.3 hPa West 6.4 km/h 11.3 km/h 42% 0.0 mm 160 W/m2
18:19 14.5 °C 2.1 °C 1016.3 hPa Calm   12.9 km/h 43% 0.0 mm 478 W/m2
18:24 14.7 °C 1.6 °C 1016.3 hPa WSW 4.7 km/h 11.3 km/h 41% 0.0 mm 169 W/m2
18:29 14.8 °C 1.7 °C 1016.3 hPa NW 1.4 km/h 12.9 km/h 41% 0.0 mm 130 W/m2
18:34 14.7 °C 1.9 °C 1016.3 hPa North 1.4 km/h 12.9 km/h 42% 0.0 mm 211 W/m2
18:39 14.7 °C 1.6 °C 1015.9 hPa WNW 7.9 km/h 14.5 km/h 41% 0.0 mm 362 W/m2
18:44 14.6 °C 1.8 °C 1015.9 hPa West 9.7 km/h 12.9 km/h 42% 0.0 mm 95 W/m2
18:49 14.4 °C 2 °C 1015.9 hPa NW 4.7 km/h 14.5 km/h 43% 0.0 mm 220 W/m2
18:54 14.3 °C 1.9 °C 1015.6 hPa NNW 3.2 km/h 9.7 km/h 43% 0.0 mm 95 W/m2
18:59 14.2 °C 1.8 °C 1015.6 hPa WNW 12.9 km/h 12.9 km/h 43% 0.0 mm 83 W/m2
19:04 14.1 °C 1.7 °C 1015.6 hPa NNE 3.2 km/h 4.8 km/h 43% 0.0 mm 241 W/m2
19:09 14.3 °C 1.9 °C 1015.6 hPa NNW 3.2 km/h 12.9 km/h 43% 0.0 mm 209 W/m2
19:14 14.3 °C 2.2 °C 1015.2 hPa NW 3.2 km/h 9.7 km/h 44% 0.0 mm 91 W/m2
19:19 14.3 °C 1.9 °C 1015.2 hPa Calm   12.9 km/h 43% 0.0 mm 109 W/m2
19:24 14.3 °C 1.9 °C 1015.2 hPa West 3.2 km/h 9.7 km/h 43% 0.0 mm 163 W/m2
19:29 14.4 °C 1.6 °C 1015.2 hPa WNW 3.2 km/h 11.3 km/h 42% 0.0 mm 149 W/m2
19:34 14.4 °C 1.6 °C 1015.2 hPa NE 3.2 km/h 8 km/h 42% 0.0 mm 146 W/m2
19:39 14.3 °C 1.9 °C 1015.2 hPa Calm   6.4 km/h 43% 0.0 mm 65 W/m2
19:44 14.3 °C 2.2 °C 1015.2 hPa Calm   1.6 km/h 44% 0.0 mm 56 W/m2
19:49 14.2 °C 2.1 °C 1014.9 hPa Calm   3.2 km/h 44% 0.0 mm 39 W/m2
19:54 14 °C 1.6 °C 1014.9 hPa WNW 4.7 km/h 9.7 km/h 43% 0.0 mm 49 W/m2
19:59 13.8 °C 1.4 °C 1014.9 hPa Calm   4.8 km/h 43% 0.0 mm 32 W/m2
20:04 13.7 °C 1.3 °C 1014.9 hPa WNW 1.4 km/h 9.7 km/h 43% 0.0 mm 44 W/m2
20:09 13.7 °C 1.3 °C 1014.6 hPa SW 3.2 km/h 14.5 km/h 43% 0.0 mm 44 W/m2
20:14 13.6 °C 1.9 °C 1014.6 hPa Calm   3.2 km/h 45% 0.0 mm 28 W/m2
20:19 13.4 °C 1.7 °C 1014.6 hPa Calm   14.5 km/h 45% 0.0 mm 23 W/m2
20:24 13.3 °C 1.6 °C 1014.6 hPa SW 1.4 km/h 4.8 km/h 45% 0.0 mm 19 W/m2
20:29 13 °C 2.2 °C 1014.6 hPa Calm   1.6 km/h 48% 0.0 mm 14 W/m2
20:34 12.8 °C 2.6 °C 1014.6 hPa SW 1.4 km/h 3.2 km/h 50% 0.0 mm 12 W/m2
20:39 12.4 °C 2.5 °C 1014.6 hPa Calm   1.6 km/h 51% 0.0 mm 9 W/m2
20:44 12.1 °C 2.8 °C 1014.2 hPa SW 1.4 km/h 1.6 km/h 53% 0.0 mm 7 W/m2
20:49 11.7 °C 2.7 °C 1014.2 hPa Calm   1.6 km/h 54% 0.0 mm 5 W/m2
20:54 11.3 °C 2.6 °C 1014.2 hPa SW 1.4 km/h 1.6 km/h 55% 0.0 mm 0 W/m2
20:59 11 °C 2.6 °C 1014.2 hPa Calm   3.2 km/h 56% 0.0 mm 0 W/m2
21:04 10.7 °C 2.5 °C 1014.2 hPa Calm     57% 0.0 mm 0 W/m2
21:09 10.4 °C 2.5 °C 1013.9 hPa Calm     58% 0.0 mm 0 W/m2
21:14 10.1 °C 2.4 °C 1013.9 hPa Calm     59% 0.0 mm 0 W/m2
21:19 9.8 °C 2.2 °C 1013.9 hPa Calm     59% 0.0 mm 0 W/m2
21:24 9.6 °C 2.4 °C 1013.9 hPa Calm     61% 0.0 mm 0 W/m2
21:29 9.3 °C 2.4 °C 1013.9 hPa Calm     62% 0.0 mm 0 W/m2
21:34 9.1 °C 2.2 °C 1013.9 hPa Calm     62% 0.0 mm 0 W/m2
21:39 8.9 °C 2 °C 1013.9 hPa Calm     62% 0.0 mm 0 W/m2
21:44 8.7 °C 2.3 °C 1013.9 hPa Calm     64% 0.0 mm 0 W/m2
21:49 8.6 °C 2 °C 1013.9 hPa Calm     63% 0.0 mm 0 W/m2
21:54 8.4 °C 2 °C 1013.9 hPa Calm     64% 0.0 mm 0 W/m2
21:59 8.3 °C 2.1 °C 1013.9 hPa Calm     65% 0.0 mm 0 W/m2
22:04 8.3 °C 2.1 °C 1013.9 hPa Calm     65% 0.0 mm 0 W/m2
22:09 8.2 °C 2.2 °C 1013.5 hPa Calm     66% 0.0 mm 0 W/m2
22:14 8.1 °C 2.1 °C 1013.5 hPa Calm     66% 0.0 mm 0 W/m2
22:19 8.1 °C 2.1 °C 1013.5 hPa Calm     66% 0.0 mm 0 W/m2
22:24 8 °C 2.2 °C 1013.5 hPa Calm     67% 0.0 mm 0 W/m2
22:29 7.9 °C 2.2 °C 1013.2 hPa Calm     67% 0.0 mm 0 W/m2
22:34 7.9 °C 2.2 °C 1013.2 hPa Calm     67% 0.0 mm 0 W/m2
22:39 7.8 °C 2.1 °C 1013.2 hPa Calm     67% 0.0 mm 0 W/m2
22:44 7.8 °C 2.3 °C 1013.2 hPa Calm     68% 0.0 mm 0 W/m2
22:49 7.7 °C 2.2 °C 1013.2 hPa Calm     68% 0.0 mm 0 W/m2
22:54 7.6 °C 2.1 °C 1013.2 hPa Calm     68% 0.0 mm 0 W/m2
22:59 7.6 °C 2.1 °C 1012.9 hPa Calm     68% 0.0 mm 0 W/m2
23:04 7.6 °C 2.1 °C 1012.9 hPa Calm     68% 0.0 mm 0 W/m2
23:09 7.5 °C 2.2 °C 1012.5 hPa Calm   4.8 km/h 69% 0.0 mm 0 W/m2
23:14 7.5 °C 2.2 °C 1012.5 hPa SW 1.4 km/h 3.2 km/h 69% 0.0 mm 0 W/m2
23:19 7.5 °C 2.2 °C 1012.5 hPa Calm   4.8 km/h 69% 0.0 mm 0 W/m2
23:24 7.4 °C 2.1 °C 1012.5 hPa Calm   1.6 km/h 69% 0.0 mm 0 W/m2
23:29 7.4 °C 2.1 °C 1012.2 hPa Calm   3.2 km/h 69% 0.0 mm 0 W/m2
23:34 7.4 °C 2.1 °C 1012.2 hPa SW 1.4 km/h 1.6 km/h 69% 0.0 mm 0 W/m2
23:39 7.4 °C 2.1 °C 1012.2 hPa SW 1.4 km/h 3.2 km/h 69% 0.0 mm 0 W/m2
23:44 7.6 °C 2.1 °C 1011.9 hPa NW 3.2 km/h 3.2 km/h 68% 0.0 mm 0 W/m2
23:49 8 °C 2.2 °C 1011.9 hPa SSE 1.4 km/h 1.6 km/h 67% 0.0 mm 0 W/m2
23:54 8.3 °C 1.9 °C 1011.9 hPa Calm   3.2 km/h 64% 0.0 mm 0 W/m2
23:59 8.8 °C 2.4 °C 1011.5 hPa West 1.4 km/h 4.8 km/h 64% 0.0 mm 0 W/m2
Juneau County Weather
Compliments of Weather Underground - 2 mb